sensor_id;sensor_type;location;lat;lon;timestamp;temperature;humidity
4366;DHT22;2196;47.422;9.656;2022-09-03T00:01:02;18.10;99.90
4366;DHT22;2196;47.422;9.656;2022-09-03T00:03:38;18.10;99.90
4366;DHT22;2196;47.422;9.656;2022-09-03T00:06:11;18.20;99.90
4366;DHT22;2196;47.422;9.656;2022-09-03T00:08:44;18.10;99.90
4366;DHT22;2196;47.422;9.656;2022-09-03T00:11:18;18.10;99.90
4366;DHT22;2196;47.422;9.656;2022-09-03T00:13:53;18.00;99.90
4366;DHT22;2196;47.422;9.656;2022-09-03T00:16:24;17.90;99.90
4366;DHT22;2196;47.422;9.656;2022-09-03T00:18:56;17.90;99.90
4366;DHT22;2196;47.422;9.656;2022-09-03T00:21:33;17.80;99.90
4366;DHT22;2196;47.422;9.656;2022-09-03T00:24:05;17.70;99.90
4366;DHT22;2196;47.422;9.656;2022-09-03T00:26:34;17.60;99.90
4366;DHT22;2196;47.422;9.656;2022-09-03T00:29:07;17.60;99.90
4366;DHT22;2196;47.422;9.656;2022-09-03T00:31:37;17.60;99.90
4366;DHT22;2196;47.422;9.656;2022-09-03T00:34:11;17.60;99.90
4366;DHT22;2196;47.422;9.656;2022-09-03T00:36:42;17.60;99.90
4366;DHT22;2196;47.422;9.656;2022-09-03T00:39:11;17.60;99.90
4366;DHT22;2196;47.422;9.656;2022-09-03T00:41:47;17.60;99.90
4366;DHT22;2196;47.422;9.656;2022-09-03T00:44:40;17.50;99.90
4366;DHT22;2196;47.422;9.656;2022-09-03T00:47:12;17.50;99.90
4366;DHT22;2196;47.422;9.656;2022-09-03T00:49:52;17.50;99.90
4366;DHT22;2196;47.422;9.656;2022-09-03T00:52:30;17.40;99.90
4366;DHT22;2196;47.422;9.656;2022-09-03T00:55:06;17.50;99.90
4366;DHT22;2196;47.422;9.656;2022-09-03T00:57:49;17.40;99.90
4366;DHT22;2196;47.422;9.656;2022-09-03T01:00:22;17.40;99.90
4366;DHT22;2196;47.422;9.656;2022-09-03T01:02:57;17.40;99.90
4366;DHT22;2196;47.422;9.656;2022-09-03T01:05:39;17.30;99.90
4366;DHT22;2196;47.422;9.656;2022-09-03T01:08:30;17.30;99.90
4366;DHT22;2196;47.422;9.656;2022-09-03T01:11:10;17.30;99.90
4366;DHT22;2196;47.422;9.656;2022-09-03T01:13:43;17.30;99.90
4366;DHT22;2196;47.422;9.656;2022-09-03T01:16:20;17.30;99.90
4366;DHT22;2196;47.422;9.656;2022-09-03T01:18:58;17.30;99.90
4366;DHT22;2196;47.422;9.656;2022-09-03T01:21:52;17.30;99.90
4366;DHT22;2196;47.422;9.656;2022-09-03T01:24:52;17.30;99.90
4366;DHT22;2196;47.422;9.656;2022-09-03T01:27:35;17.30;99.90
4366;DHT22;2196;47.422;9.656;2022-09-03T01:30:11;17.20;99.90
4366;DHT22;2196;47.422;9.656;2022-09-03T01:32:47;17.30;99.90
4366;DHT22;2196;47.422;9.656;2022-09-03T01:35:26;17.30;99.90
4366;DHT22;2196;47.422;9.656;2022-09-03T01:38:05;17.30;99.90
4366;DHT22;2196;47.422;9.656;2022-09-03T01:40:42;17.40;99.90
4366;DHT22;2196;47.422;9.656;2022-09-03T01:43:27;17.40;99.90
4366;DHT22;2196;47.422;9.656;2022-09-03T01:46:06;17.40;99.90
4366;DHT22;2196;47.422;9.656;2022-09-03T01:48:43;17.30;99.90
4366;DHT22;2196;47.422;9.656;2022-09-03T01:51:17;17.30;99.90
4366;DHT22;2196;47.422;9.656;2022-09-03T01:54:01;17.30;99.90
4366;DHT22;2196;47.422;9.656;2022-09-03T01:56:42;17.30;99.90
4366;DHT22;2196;47.422;9.656;2022-09-03T01:59:16;17.20;99.90
4366;DHT22;2196;47.422;9.656;2022-09-03T02:01:52;17.40;99.90
4366;DHT22;2196;47.422;9.656;2022-09-03T02:04:22;17.40;99.90
4366;DHT22;2196;47.422;9.656;2022-09-03T02:06:50;17.40;99.90
4366;DHT22;2196;47.422;9.656;2022-09-03T02:09:18;17.40;99.90
4366;DHT22;2196;47.422;9.656;2022-09-03T02:11:49;17.40;99.90
4366;DHT22;2196;47.422;9.656;2022-09-03T02:14:19;17.50;99.90
4366;DHT22;2196;47.422;9.656;2022-09-03T02:16:48;17.60;99.90
4366;DHT22;2196;47.422;9.656;2022-09-03T02:19:16;17.50;99.90
4366;DHT22;2196;47.422;9.656;2022-09-03T02:21:48;17.60;99.90
4366;DHT22;2196;47.422;9.656;2022-09-03T02:24:16;17.60;99.90
4366;DHT22;2196;47.422;9.656;2022-09-03T02:26:43;17.70;99.90
4366;DHT22;2196;47.422;9.656;2022-09-03T02:29:12;17.60;99.90
4366;DHT22;2196;47.422;9.656;2022-09-03T02:31:39;17.60;99.90
4366;DHT22;2196;47.422;9.656;2022-09-03T02:34:07;17.50;99.90
4366;DHT22;2196;47.422;9.656;2022-09-03T02:36:37;17.50;99.90
4366;DHT22;2196;47.422;9.656;2022-09-03T02:39:05;17.50;99.90
4366;DHT22;2196;47.422;9.656;2022-09-03T02:41:32;17.40;99.90
4366;DHT22;2196;47.422;9.656;2022-09-03T02:44:02;17.40;99.90
4366;DHT22;2196;47.422;9.656;2022-09-03T02:46:33;17.30;99.90
4366;DHT22;2196;47.422;9.656;2022-09-03T02:49:01;17.30;99.90
4366;DHT22;2196;47.422;9.656;2022-09-03T02:51:33;17.30;99.90
4366;DHT22;2196;47.422;9.656;2022-09-03T02:54:01;17.30;99.90
4366;DHT22;2196;47.422;9.656;2022-09-03T02:56:28;17.20;99.90
4366;DHT22;2196;47.422;9.656;2022-09-03T02:58:55;17.20;99.90
4366;DHT22;2196;47.422;9.656;2022-09-03T03:01:23;17.10;99.90
4366;DHT22;2196;47.422;9.656;2022-09-03T03:03:51;17.00;99.90
4366;DHT22;2196;47.422;9.656;2022-09-03T03:06:18;17.00;99.90
4366;DHT22;2196;47.422;9.656;2022-09-03T03:08:48;17.00;99.90
4366;DHT22;2196;47.422;9.656;2022-09-03T03:11:16;16.90;99.90
4366;DHT22;2196;47.422;9.656;2022-09-03T03:13:45;16.90;99.90
4366;DHT22;2196;47.422;9.656;2022-09-03T03:16:14;16.90;99.90
4366;DHT22;2196;47.422;9.656;2022-09-03T03:18:41;16.90;99.90
4366;DHT22;2196;47.422;9.656;2022-09-03T03:21:12;16.90;99.90
4366;DHT22;2196;47.422;9.656;2022-09-03T03:23:40;16.90;99.90
4366;DHT22;2196;47.422;9.656;2022-09-03T03:26:10;17.00;99.90
4366;DHT22;2196;47.422;9.656;2022-09-03T03:28:37;17.00;99.90
4366;DHT22;2196;47.422;9.656;2022-09-03T03:31:07;16.90;99.90
4366;DHT22;2196;47.422;9.656;2022-09-03T03:33:35;16.80;99.90
4366;DHT22;2196;47.422;9.656;2022-09-03T03:36:06;16.70;99.90
4366;DHT22;2196;47.422;9.656;2022-09-03T03:38:34;16.70;99.90
4366;DHT22;2196;47.422;9.656;2022-09-03T03:41:08;16.60;99.90
4366;DHT22;2196;47.422;9.656;2022-09-03T03:43:35;16.60;99.90
4366;DHT22;2196;47.422;9.656;2022-09-03T03:46:02;16.50;99.90
4366;DHT22;2196;47.422;9.656;2022-09-03T03:48:30;16.50;99.90
4366;DHT22;2196;47.422;9.656;2022-09-03T03:51:00;16.40;99.90
4366;DHT22;2196;47.422;9.656;2022-09-03T03:53:29;16.50;99.90
4366;DHT22;2196;47.422;9.656;2022-09-03T03:55:57;16.50;99.90
4366;DHT22;2196;47.422;9.656;2022-09-03T03:58:28;16.50;99.90
4366;DHT22;2196;47.422;9.656;2022-09-03T04:01:03;16.50;99.90
4366;DHT22;2196;47.422;9.656;2022-09-03T04:03:30;16.40;99.90
4366;DHT22;2196;47.422;9.656;2022-09-03T04:05:58;16.40;99.90
4366;DHT22;2196;47.422;9.656;2022-09-03T04:08:25;16.40;99.90
4366;DHT22;2196;47.422;9.656;2022-09-03T04:10:53;16.40;99.90
4366;DHT22;2196;47.422;9.656;2022-09-03T04:13:20;16.40;99.90
4366;DHT22;2196;47.422;9.656;2022-09-03T04:15:48;16.40;99.90
4366;DHT22;2196;47.422;9.656;2022-09-03T04:18:15;16.40;99.90
4366;DHT22;2196;47.422;9.656;2022-09-03T04:20:45;16.40;99.90
4366;DHT22;2196;47.422;9.656;2022-09-03T04:23:15;16.50;99.90
4366;DHT22;2196;47.422;9.656;2022-09-03T04:25:42;16.50;99.90
4366;DHT22;2196;47.422;9.656;2022-09-03T04:28:09;16.40;99.90
4366;DHT22;2196;47.422;9.656;2022-09-03T04:30:39;16.40;99.90
4366;DHT22;2196;47.422;9.656;2022-09-03T04:33:08;16.40;99.90
4366;DHT22;2196;47.422;9.656;2022-09-03T04:35:38;16.40;99.90
4366;DHT22;2196;47.422;9.656;2022-09-03T04:38:05;16.40;99.90
4366;DHT22;2196;47.422;9.656;2022-09-03T04:40:33;16.40;99.90
4366;DHT22;2196;47.422;9.656;2022-09-03T04:43:00;16.30;99.90
4366;DHT22;2196;47.422;9.656;2022-09-03T04:45:27;16.30;99.90
4366;DHT22;2196;47.422;9.656;2022-09-03T04:47:58;16.40;99.90
4366;DHT22;2196;47.422;9.656;2022-09-03T04:50:28;16.40;99.90
4366;DHT22;2196;47.422;9.656;2022-09-03T04:52:59;16.40;99.90
4366;DHT22;2196;47.422;9.656;2022-09-03T04:55:27;16.40;99.90
4366;DHT22;2196;47.422;9.656;2022-09-03T04:57:54;16.40;99.90
4366;DHT22;2196;47.422;9.656;2022-09-03T05:00:21;16.40;99.90
4366;DHT22;2196;47.422;9.656;2022-09-03T05:02:48;16.40;99.90
4366;DHT22;2196;47.422;9.656;2022-09-03T05:05:17;16.50;99.90
4366;DHT22;2196;47.422;9.656;2022-09-03T05:07:45;16.50;99.90
4366;DHT22;2196;47.422;9.656;2022-09-03T05:10:13;16.50;99.90
4366;DHT22;2196;47.422;9.656;2022-09-03T05:12:47;16.50;99.90
4366;DHT22;2196;47.422;9.656;2022-09-03T05:15:15;16.60;99.90
4366;DHT22;2196;47.422;9.656;2022-09-03T05:17:42;16.60;99.90
4366;DHT22;2196;47.422;9.656;2022-09-03T05:20:10;16.60;99.90
4366;DHT22;2196;47.422;9.656;2022-09-03T05:22:37;16.50;99.90
4366;DHT22;2196;47.422;9.656;2022-09-03T05:25:06;16.60;99.90
4366;DHT22;2196;47.422;9.656;2022-09-03T05:27:33;16.50;99.90
4366;DHT22;2196;47.422;9.656;2022-09-03T05:30:00;16.50;99.90
4366;DHT22;2196;47.422;9.656;2022-09-03T05:32:30;16.40;99.90
4366;DHT22;2196;47.422;9.656;2022-09-03T05:34:57;16.40;99.90
4366;DHT22;2196;47.422;9.656;2022-09-03T05:37:24;16.40;99.90
4366;DHT22;2196;47.422;9.656;2022-09-03T05:39:51;16.50;99.90
4366;DHT22;2196;47.422;9.656;2022-09-03T05:42:20;16.50;99.90
4366;DHT22;2196;47.422;9.656;2022-09-03T05:44:47;16.60;99.90
4366;DHT22;2196;47.422;9.656;2022-09-03T05:47:15;16.60;99.90
4366;DHT22;2196;47.422;9.656;2022-09-03T05:49:42;16.70;99.90
4366;DHT22;2196;47.422;9.656;2022-09-03T05:52:09;16.80;99.90
4366;DHT22;2196;47.422;9.656;2022-09-03T05:54:39;16.90;99.90
4366;DHT22;2196;47.422;9.656;2022-09-03T05:57:07;16.90;99.90
4366;DHT22;2196;47.422;9.656;2022-09-03T05:59:35;17.00;99.90
4366;DHT22;2196;47.422;9.656;2022-09-03T06:02:02;17.10;99.90
4366;DHT22;2196;47.422;9.656;2022-09-03T06:04:29;17.20;99.90
4366;DHT22;2196;47.422;9.656;2022-09-03T06:06:57;17.30;99.90
4366;DHT22;2196;47.422;9.656;2022-09-03T06:09:24;17.40;99.90
4366;DHT22;2196;47.422;9.656;2022-09-03T06:11:52;17.50;99.90
4366;DHT22;2196;47.422;9.656;2022-09-03T06:14:20;18.00;99.90
4366;DHT22;2196;47.422;9.656;2022-09-03T06:16:49;18.40;99.90
4366;DHT22;2196;47.422;9.656;2022-09-03T06:19:17;18.90;99.90
4366;DHT22;2196;47.422;9.656;2022-09-03T06:21:45;19.30;99.90
4366;DHT22;2196;47.422;9.656;2022-09-03T06:24:14;19.70;99.90
4366;DHT22;2196;47.422;9.656;2022-09-03T06:26:43;19.90;99.90
4366;DHT22;2196;47.422;9.656;2022-09-03T06:29:11;20.50;99.90
4366;DHT22;2196;47.422;9.656;2022-09-03T06:31:40;21.30;99.90
4366;DHT22;2196;47.422;9.656;2022-09-03T06:34:09;22.30;99.90
4366;DHT22;2196;47.422;9.656;2022-09-03T06:36:37;23.30;99.90
4366;DHT22;2196;47.422;9.656;2022-09-03T06:39:06;23.70;99.90
4366;DHT22;2196;47.422;9.656;2022-09-03T06:41:33;23.60;99.90
4366;DHT22;2196;47.422;9.656;2022-09-03T06:44:03;22.80;99.90
4366;DHT22;2196;47.422;9.656;2022-09-03T06:46:32;22.30;99.90
4366;DHT22;2196;47.422;9.656;2022-09-03T06:49:00;21.60;99.90
4366;DHT22;2196;47.422;9.656;2022-09-03T06:51:30;20.90;99.90
4366;DHT22;2196;47.422;9.656;2022-09-03T06:53:59;20.50;99.90
4366;DHT22;2196;47.422;9.656;2022-09-03T06:56:27;20.10;99.90
4366;DHT22;2196;47.422;9.656;2022-09-03T06:58:56;19.90;99.90
4366;DHT22;2196;47.422;9.656;2022-09-03T07:01:25;20.30;99.90
4366;DHT22;2196;47.422;9.656;2022-09-03T07:03:54;21.10;99.90
4366;DHT22;2196;47.422;9.656;2022-09-03T07:06:22;22.20;99.90
4366;DHT22;2196;47.422;9.656;2022-09-03T07:08:51;23.50;99.90
4366;DHT22;2196;47.422;9.656;2022-09-03T07:11:20;23.80;99.90
4366;DHT22;2196;47.422;9.656;2022-09-03T07:13:52;23.30;99.90
4366;DHT22;2196;47.422;9.656;2022-09-03T07:16:21;22.70;99.90
4366;DHT22;2196;47.422;9.656;2022-09-03T07:18:49;22.20;99.90
4366;DHT22;2196;47.422;9.656;2022-09-03T07:21:18;21.60;99.90
4366;DHT22;2196;47.422;9.656;2022-09-03T07:23:46;21.30;99.90
4366;DHT22;2196;47.422;9.656;2022-09-03T07:26:17;21.10;99.90
4366;DHT22;2196;47.422;9.656;2022-09-03T07:28:45;20.90;99.90
4366;DHT22;2196;47.422;9.656;2022-09-03T07:31:15;21.10;99.90
4366;DHT22;2196;47.422;9.656;2022-09-03T07:33:44;21.40;99.90
4366;DHT22;2196;47.422;9.656;2022-09-03T07:36:14;21.50;99.90
4366;DHT22;2196;47.422;9.656;2022-09-03T07:38:42;21.30;99.90
4366;DHT22;2196;47.422;9.656;2022-09-03T07:41:11;21.10;99.90
4366;DHT22;2196;47.422;9.656;2022-09-03T07:43:41;20.80;99.90
4366;DHT22;2196;47.422;9.656;2022-09-03T07:46:09;20.60;99.90
4366;DHT22;2196;47.422;9.656;2022-09-03T07:48:38;20.60;99.90
4366;DHT22;2196;47.422;9.656;2022-09-03T07:51:06;20.70;99.90
4366;DHT22;2196;47.422;9.656;2022-09-03T07:53:33;20.80;99.90
4366;DHT22;2196;47.422;9.656;2022-09-03T07:56:02;20.80;99.90
4366;DHT22;2196;47.422;9.656;2022-09-03T07:58:29;20.80;99.90
4366;DHT22;2196;47.422;9.656;2022-09-03T08:01:02;21.40;99.90
4366;DHT22;2196;47.422;9.656;2022-09-03T08:03:30;22.10;99.90
4366;DHT22;2196;47.422;9.656;2022-09-03T08:06:00;22.40;99.90
4366;DHT22;2196;47.422;9.656;2022-09-03T08:08:27;23.10;99.90
4366;DHT22;2196;47.422;9.656;2022-09-03T08:10:54;23.50;99.90
4366;DHT22;2196;47.422;9.656;2022-09-03T08:13:23;24.40;99.90
4366;DHT22;2196;47.422;9.656;2022-09-03T08:15:53;25.30;99.90
4366;DHT22;2196;47.422;9.656;2022-09-03T08:18:22;25.90;99.90
4366;DHT22;2196;47.422;9.656;2022-09-03T08:20:49;26.40;99.90
4366;DHT22;2196;47.422;9.656;2022-09-03T08:23:16;27.00;99.90
4366;DHT22;2196;47.422;9.656;2022-09-03T08:25:42;27.30;99.90
4366;DHT22;2196;47.422;9.656;2022-09-03T08:28:10;27.10;99.90
4366;DHT22;2196;47.422;9.656;2022-09-03T08:30:37;27.50;99.90
4366;DHT22;2196;47.422;9.656;2022-09-03T08:33:04;27.40;99.90
4366;DHT22;2196;47.422;9.656;2022-09-03T08:35:33;27.30;99.90
4366;DHT22;2196;47.422;9.656;2022-09-03T08:38:02;27.20;99.90
4366;DHT22;2196;47.422;9.656;2022-09-03T08:40:32;26.70;99.90
4366;DHT22;2196;47.422;9.656;2022-09-03T08:43:07;27.00;99.90
4366;DHT22;2196;47.422;9.656;2022-09-03T08:45:42;27.00;99.90
4366;DHT22;2196;47.422;9.656;2022-09-03T08:48:16;27.00;99.90
4366;DHT22;2196;47.422;9.656;2022-09-03T08:50:48;27.10;99.90
4366;DHT22;2196;47.422;9.656;2022-09-03T08:53:23;26.80;99.90
4366;DHT22;2196;47.422;9.656;2022-09-03T08:55:56;27.20;99.90
4366;DHT22;2196;47.422;9.656;2022-09-03T08:58:27;27.60;99.90
4366;DHT22;2196;47.422;9.656;2022-09-03T09:00:58;28.00;99.90
4366;DHT22;2196;47.422;9.656;2022-09-03T09:03:43;28.60;99.90
4366;DHT22;2196;47.422;9.656;2022-09-03T09:06:22;28.80;99.90
4366;DHT22;2196;47.422;9.656;2022-09-03T09:08:58;29.10;99.90
4366;DHT22;2196;47.422;9.656;2022-09-03T09:11:37;29.00;99.90
4366;DHT22;2196;47.422;9.656;2022-09-03T09:14:14;28.30;99.90
4366;DHT22;2196;47.422;9.656;2022-09-03T09:16:49;28.00;99.90
4366;DHT22;2196;47.422;9.656;2022-09-03T09:19:30;27.90;99.90
4366;DHT22;2196;47.422;9.656;2022-09-03T09:22:09;28.30;99.90
4366;DHT22;2196;47.422;9.656;2022-09-03T09:24:40;28.50;99.90
4366;DHT22;2196;47.422;9.656;2022-09-03T09:27:15;28.60;99.90
4366;DHT22;2196;47.422;9.656;2022-09-03T09:29:47;28.60;99.90
4366;DHT22;2196;47.422;9.656;2022-09-03T09:32:15;28.10;99.90
4366;DHT22;2196;47.422;9.656;2022-09-03T09:34:43;28.60;99.90
4366;DHT22;2196;47.422;9.656;2022-09-03T09:37:14;28.60;99.90
4366;DHT22;2196;47.422;9.656;2022-09-03T09:39:53;28.90;99.90
4366;DHT22;2196;47.422;9.656;2022-09-03T09:42:21;28.80;99.90
4366;DHT22;2196;47.422;9.656;2022-09-03T09:44:49;29.20;99.90
4366;DHT22;2196;47.422;9.656;2022-09-03T09:47:21;28.90;99.90
4366;DHT22;2196;47.422;9.656;2022-09-03T09:49:52;29.10;99.90
4366;DHT22;2196;47.422;9.656;2022-09-03T09:52:23;28.70;99.90
4366;DHT22;2196;47.422;9.656;2022-09-03T09:55:04;28.70;99.90
4366;DHT22;2196;47.422;9.656;2022-09-03T09:57:33;28.70;99.90
4366;DHT22;2196;47.422;9.656;2022-09-03T10:00:05;29.00;99.90
4366;DHT22;2196;47.422;9.656;2022-09-03T10:02:35;29.20;99.90
4366;DHT22;2196;47.422;9.656;2022-09-03T10:05:12;29.40;99.90
4366;DHT22;2196;47.422;9.656;2022-09-03T10:07:41;29.90;99.90
4366;DHT22;2196;47.422;9.656;2022-09-03T10:10:14;29.90;99.90
4366;DHT22;2196;47.422;9.656;2022-09-03T10:12:46;30.40;99.90
4366;DHT22;2196;47.422;9.656;2022-09-03T10:15:22;30.70;99.90
4366;DHT22;2196;47.422;9.656;2022-09-03T10:18:02;30.60;99.90
4366;DHT22;2196;47.422;9.656;2022-09-03T10:20:37;30.00;99.90
4366;DHT22;2196;47.422;9.656;2022-09-03T10:23:12;30.40;99.90
4366;DHT22;2196;47.422;9.656;2022-09-03T10:25:58;30.30;99.90
4366;DHT22;2196;47.422;9.656;2022-09-03T10:28:33;29.70;99.90
4366;DHT22;2196;47.422;9.656;2022-09-03T10:34:09;28.10;99.90
4366;DHT22;2196;47.422;9.656;2022-09-03T10:36:42;27.30;99.90
4366;DHT22;2196;47.422;9.656;2022-09-03T10:39:17;26.80;99.90
4366;DHT22;2196;47.422;9.656;2022-09-03T10:41:55;26.40;99.90
4366;DHT22;2196;47.422;9.656;2022-09-03T10:44:38;26.40;99.90
4366;DHT22;2196;47.422;9.656;2022-09-03T10:47:20;26.40;99.90
4366;DHT22;2196;47.422;9.656;2022-09-03T10:49:57;26.40;99.90
4366;DHT22;2196;47.422;9.656;2022-09-03T10:52:39;26.50;99.90
4366;DHT22;2196;47.422;9.656;2022-09-03T10:55:18;26.60;99.90
4366;DHT22;2196;47.422;9.656;2022-09-03T10:57:53;26.80;99.90
4366;DHT22;2196;47.422;9.656;2022-09-03T11:00:22;26.80;99.90
4366;DHT22;2196;47.422;9.656;2022-09-03T11:03:07;26.80;99.90
4366;DHT22;2196;47.422;9.656;2022-09-03T11:05:42;26.80;99.90
4366;DHT22;2196;47.422;9.656;2022-09-03T11:08:18;26.60;99.90
4366;DHT22;2196;47.422;9.656;2022-09-03T11:10:50;26.40;99.90
4366;DHT22;2196;47.422;9.656;2022-09-03T11:13:23;26.20;99.90
4366;DHT22;2196;47.422;9.656;2022-09-03T11:15:57;26.10;99.90
4366;DHT22;2196;47.422;9.656;2022-09-03T11:18:29;25.60;99.90
4366;DHT22;2196;47.422;9.656;2022-09-03T11:21:01;24.90;99.90
4366;DHT22;2196;47.422;9.656;2022-09-03T11:23:33;23.90;99.90
4366;DHT22;2196;47.422;9.656;2022-09-03T11:26:06;23.20;99.90
4366;DHT22;2196;47.422;9.656;2022-09-03T11:28:40;22.70;99.90
4366;DHT22;2196;47.422;9.656;2022-09-03T11:31:24;22.10;99.90
4366;DHT22;2196;47.422;9.656;2022-09-03T11:33:59;21.80;99.90
4366;DHT22;2196;47.422;9.656;2022-09-03T11:36:30;21.40;99.90
4366;DHT22;2196;47.422;9.656;2022-09-03T11:38:57;21.20;99.90
4366;DHT22;2196;47.422;9.656;2022-09-03T11:41:27;20.90;99.90
4366;DHT22;2196;47.422;9.656;2022-09-03T11:44:10;20.60;99.90
4366;DHT22;2196;47.422;9.656;2022-09-03T11:46:39;20.40;99.90
4366;DHT22;2196;47.422;9.656;2022-09-03T11:49:11;20.00;99.90
4366;DHT22;2196;47.422;9.656;2022-09-03T11:51:39;19.80;99.90
4366;DHT22;2196;47.422;9.656;2022-09-03T11:54:23;19.40;99.90
4366;DHT22;2196;47.422;9.656;2022-09-03T11:57:10;19.20;99.90
4366;DHT22;2196;47.422;9.656;2022-09-03T11:59:39;19.10;99.90
4366;DHT22;2196;47.422;9.656;2022-09-03T12:02:25;19.00;99.90
4366;DHT22;2196;47.422;9.656;2022-09-03T12:05:06;18.90;99.90
4366;DHT22;2196;47.422;9.656;2022-09-03T12:07:49;18.80;99.90
4366;DHT22;2196;47.422;9.656;2022-09-03T12:10:31;18.60;99.90
4366;DHT22;2196;47.422;9.656;2022-09-03T12:13:19;18.40;99.90
4366;DHT22;2196;47.422;9.656;2022-09-03T12:19:00;18.30;99.90
4366;DHT22;2196;47.422;9.656;2022-09-03T12:21:29;18.20;99.90
4366;DHT22;2196;47.422;9.656;2022-09-03T12:23:56;18.30;99.90
4366;DHT22;2196;47.422;9.656;2022-09-03T12:26:25;18.40;99.90
4366;DHT22;2196;47.422;9.656;2022-09-03T12:28:56;18.30;99.90
4366;DHT22;2196;47.422;9.656;2022-09-03T12:31:25;18.20;99.90
4366;DHT22;2196;47.422;9.656;2022-09-03T12:33:56;18.10;99.90
4366;DHT22;2196;47.422;9.656;2022-09-03T12:36:25;18.10;99.90
4366;DHT22;2196;47.422;9.656;2022-09-03T12:38:52;18.00;99.90
4366;DHT22;2196;47.422;9.656;2022-09-03T12:41:21;17.90;99.90
4366;DHT22;2196;47.422;9.656;2022-09-03T12:43:50;18.00;99.90
4366;DHT22;2196;47.422;9.656;2022-09-03T12:46:22;18.10;99.90
4366;DHT22;2196;47.422;9.656;2022-09-03T12:48:53;18.10;99.90
4366;DHT22;2196;47.422;9.656;2022-09-03T12:51:21;18.20;99.90
4366;DHT22;2196;47.422;9.656;2022-09-03T12:53:50;18.30;99.90
4366;DHT22;2196;47.422;9.656;2022-09-03T12:56:18;18.50;99.90
4366;DHT22;2196;47.422;9.656;2022-09-03T12:58:49;18.80;99.90
4366;DHT22;2196;47.422;9.656;2022-09-03T13:01:22;19.10;99.90
4366;DHT22;2196;47.422;9.656;2022-09-03T13:03:53;19.40;99.90
4366;DHT22;2196;47.422;9.656;2022-09-03T13:06:24;19.60;99.90
4366;DHT22;2196;47.422;9.656;2022-09-03T13:08:55;19.80;99.90
4366;DHT22;2196;47.422;9.656;2022-09-03T13:11:25;19.80;99.90
4366;DHT22;2196;47.422;9.656;2022-09-03T13:13:54;20.00;99.90
4366;DHT22;2196;47.422;9.656;2022-09-03T13:17:09;20.10;99.90
4366;DHT22;2196;47.422;9.656;2022-09-03T13:19:46;20.40;99.90
4366;DHT22;2196;47.422;9.656;2022-09-03T13:22:22;20.50;99.90
4366;DHT22;2196;47.422;9.656;2022-09-03T13:25:12;20.60;99.90
4366;DHT22;2196;47.422;9.656;2022-09-03T13:27:44;20.70;99.90
4366;DHT22;2196;47.422;9.656;2022-09-03T13:30:20;20.90;99.90
4366;DHT22;2196;47.422;9.656;2022-09-03T13:32:58;21.00;99.90
4366;DHT22;2196;47.422;9.656;2022-09-03T13:35:32;21.00;99.90
4366;DHT22;2196;47.422;9.656;2022-09-03T13:38:07;21.10;99.90
4366;DHT22;2196;47.422;9.656;2022-09-03T13:40:44;21.10;99.90
4366;DHT22;2196;47.422;9.656;2022-09-03T13:43:26;21.10;99.90
4366;DHT22;2196;47.422;9.656;2022-09-03T13:45:57;20.80;99.90
4366;DHT22;2196;47.422;9.656;2022-09-03T13:48:35;20.70;99.90
4366;DHT22;2196;47.422;9.656;2022-09-03T13:51:24;20.70;99.90
4366;DHT22;2196;47.422;9.656;2022-09-03T13:54:06;20.70;99.90
4366;DHT22;2196;47.422;9.656;2022-09-03T13:56:53;20.60;99.90
4366;DHT22;2196;47.422;9.656;2022-09-03T13:59:32;20.70;99.90
4366;DHT22;2196;47.422;9.656;2022-09-03T14:02:15;20.90;99.90
4366;DHT22;2196;47.422;9.656;2022-09-03T14:04:57;21.00;99.90
4366;DHT22;2196;47.422;9.656;2022-09-03T14:07:43;21.10;99.90
4366;DHT22;2196;47.422;9.656;2022-09-03T14:10:22;21.30;99.90
4366;DHT22;2196;47.422;9.656;2022-09-03T14:13:06;21.30;99.90
4366;DHT22;2196;47.422;9.656;2022-09-03T14:15:44;21.30;99.90
4366;DHT22;2196;47.422;9.656;2022-09-03T14:18:22;21.40;99.90
4366;DHT22;2196;47.422;9.656;2022-09-03T14:20:58;21.40;99.90
4366;DHT22;2196;47.422;9.656;2022-09-03T14:23:35;21.40;99.90
4366;DHT22;2196;47.422;9.656;2022-09-03T14:26:06;21.50;99.90
4366;DHT22;2196;47.422;9.656;2022-09-03T14:28:44;21.40;99.90
4366;DHT22;2196;47.422;9.656;2022-09-03T14:31:22;21.30;99.90
4366;DHT22;2196;47.422;9.656;2022-09-03T14:33:59;21.30;99.90
4366;DHT22;2196;47.422;9.656;2022-09-03T14:36:36;21.40;99.90
4366;DHT22;2196;47.422;9.656;2022-09-03T14:39:29;21.40;99.90
4366;DHT22;2196;47.422;9.656;2022-09-03T14:45:14;21.40;99.90
4366;DHT22;2196;47.422;9.656;2022-09-03T14:47:55;21.40;99.90
4366;DHT22;2196;47.422;9.656;2022-09-03T14:50:43;21.30;99.90
4366;DHT22;2196;47.422;9.656;2022-09-03T14:53:38;21.40;99.90
4366;DHT22;2196;47.422;9.656;2022-09-03T14:56:23;21.50;99.90
4366;DHT22;2196;47.422;9.656;2022-09-03T14:59:11;21.70;99.90
4366;DHT22;2196;47.422;9.656;2022-09-03T15:01:42;21.70;99.90
4366;DHT22;2196;47.422;9.656;2022-09-03T15:04:44;21.70;99.90
4366;DHT22;2196;47.422;9.656;2022-09-03T15:07:21;21.70;99.90
4366;DHT22;2196;47.422;9.656;2022-09-03T15:10:07;21.60;99.90
4366;DHT22;2196;47.422;9.656;2022-09-03T15:12:40;21.60;99.90
4366;DHT22;2196;47.422;9.656;2022-09-03T15:15:12;21.40;99.90
4366;DHT22;2196;47.422;9.656;2022-09-03T15:20:40;21.10;99.90
4366;DHT22;2196;47.422;9.656;2022-09-03T15:23:22;21.00;99.90
4366;DHT22;2196;47.422;9.656;2022-09-03T15:29:06;20.80;99.90
4366;DHT22;2196;47.422;9.656;2022-09-03T15:31:46;20.70;99.90
4366;DHT22;2196;47.422;9.656;2022-09-03T15:34:38;20.80;99.90
4366;DHT22;2196;47.422;9.656;2022-09-03T15:37:11;20.80;99.90
4366;DHT22;2196;47.422;9.656;2022-09-03T15:39:42;20.80;99.90
4366;DHT22;2196;47.422;9.656;2022-09-03T15:42:16;20.80;99.90
4366;DHT22;2196;47.422;9.656;2022-09-03T15:44:47;20.70;99.90
4366;DHT22;2196;47.422;9.656;2022-09-03T15:47:31;20.70;99.90
4366;DHT22;2196;47.422;9.656;2022-09-03T15:50:04;20.70;99.90
4366;DHT22;2196;47.422;9.656;2022-09-03T15:52:44;20.60;99.90
4366;DHT22;2196;47.422;9.656;2022-09-03T15:55:27;20.60;99.90
4366;DHT22;2196;47.422;9.656;2022-09-03T15:57:59;20.60;99.90
4366;DHT22;2196;47.422;9.656;2022-09-03T16:00:48;20.70;99.90
4366;DHT22;2196;47.422;9.656;2022-09-03T16:03:21;20.70;99.90
4366;DHT22;2196;47.422;9.656;2022-09-03T16:05:59;20.70;99.90
4366;DHT22;2196;47.422;9.656;2022-09-03T16:08:35;20.70;99.90
4366;DHT22;2196;47.422;9.656;2022-09-03T16:11:07;20.60;99.90
4366;DHT22;2196;47.422;9.656;2022-09-03T16:13:58;20.70;99.90
4366;DHT22;2196;47.422;9.656;2022-09-03T16:16:40;20.70;99.90
4366;DHT22;2196;47.422;9.656;2022-09-03T16:19:13;20.80;99.90
4366;DHT22;2196;47.422;9.656;2022-09-03T16:21:45;20.70;99.90
4366;DHT22;2196;47.422;9.656;2022-09-03T16:24:17;20.90;99.90
4366;DHT22;2196;47.422;9.656;2022-09-03T16:26:50;21.00;99.90
4366;DHT22;2196;47.422;9.656;2022-09-03T16:29:25;21.00;99.90
4366;DHT22;2196;47.422;9.656;2022-09-03T16:32:10;21.00;99.90
4366;DHT22;2196;47.422;9.656;2022-09-03T16:34:47;20.80;99.90
4366;DHT22;2196;47.422;9.656;2022-09-03T16:37:23;20.80;99.90
4366;DHT22;2196;47.422;9.656;2022-09-03T16:40:02;20.70;99.90
4366;DHT22;2196;47.422;9.656;2022-09-03T16:42:37;20.70;99.90
4366;DHT22;2196;47.422;9.656;2022-09-03T16:45:18;20.70;99.90
4366;DHT22;2196;47.422;9.656;2022-09-03T16:47:57;20.80;99.90
4366;DHT22;2196;47.422;9.656;2022-09-03T16:50:41;20.70;99.90
4366;DHT22;2196;47.422;9.656;2022-09-03T16:53:19;20.60;99.90
4366;DHT22;2196;47.422;9.656;2022-09-03T16:56:01;20.50;99.90